Time;durP1;ratioP1;P1;durP2;ratioP2;P2;SDS_P1;SDS_P2;PMS_P1;PMS_P2;Temp;Humidity;BMP_temperature;BMP_pressure;BME280_temperature;BME280_humidity;BME280_pressure;Samples;Min_cycle;Max_cycle;Signal;HPM_P1;HPM_P2
2022/03/22 00:02:07;;;;;;;46.20;28.00;;;;;;;;;;5071923;28;20036;-63
2022/03/22 00:04:33;;;;;;;45.35;28.55;;;;;;;;;;5075125;28;20514;-63
2022/03/22 00:06:59;;;;;;;48.05;28.23;;;;;;;;;;5058014;28;20052;-63
2022/03/22 00:09:25;;;;;;;45.30;29.08;;;;;;;;;;5071190;28;20377;-64
2022/03/22 00:11:51;;;;;;;49.25;29.10;;;;;;;;;;5055926;28;20136;-63
2022/03/22 00:14:18;;;;;;;49.00;28.80;;;;;;;;;;5077281;28;20036;-63
2022/03/22 00:16:44;;;;;;;47.10;29.65;;;;;;;;;;5067693;28;20047;-63
2022/03/22 00:19:10;;;;;;;49.25;31.10;;;;;;;;;;5074894;28;20060;-63
2022/03/22 00:21:36;;;;;;;45.75;28.63;;;;;;;;;;5070735;28;20041;-63
2022/03/22 00:24:03;;;;;;;48.60;29.90;;;;;;;;;;5070792;28;20423;-63
2022/03/22 00:26:29;;;;;;;61.00;31.60;;;;;;;;;;5071300;28;20388;-70
2022/03/22 00:28:55;;;;;;;48.10;30.38;;;;;;;;;;5070632;28;20102;-64
2022/03/22 00:31:21;;;;;;;48.80;29.20;;;;;;;;;;5057322;28;20481;-64
2022/03/22 00:33:47;;;;;;;50.35;30.63;;;;;;;;;;5071326;28;20083;-63
2022/03/22 00:36:13;;;;;;;47.40;29.55;;;;;;;;;;5071035;28;20044;-63
2022/03/22 00:38:39;;;;;;;47.42;29.70;;;;;;;;;;5053583;28;20040;-64
2022/03/22 00:41:05;;;;;;;48.72;30.80;;;;;;;;;;5071306;28;20435;-64
2022/03/22 00:43:34;;;;;;;52.72;32.53;;;;;;;;;;5076102;28;20043;-64
2022/03/22 00:46:01;;;;;;;48.25;30.95;;;;;;;;;;5071299;28;20032;-63
2022/03/22 00:48:28;;;;;;;52.42;33.05;;;;;;;;;;5060079;28;20040;-63
2022/03/22 00:50:54;;;;;;;50.28;31.27;;;;;;;;;;5071522;28;20370;-63
2022/03/22 00:53:20;;;;;;;52.92;30.70;;;;;;;;;;5061735;28;20051;-63
2022/03/22 00:55:48;;;;;;;53.28;32.58;;;;;;;;;;5082685;28;20094;-63
2022/03/22 00:58:14;;;;;;;49.80;31.35;;;;;;;;;;5079485;28;20033;-63
2022/03/22 01:00:40;;;;;;;54.47;33.05;;;;;;;;;;5062271;28;20106;-64
2022/03/22 01:03:07;;;;;;;51.25;31.98;;;;;;;;;;5059679;28;20040;-64
2022/03/22 01:05:35;;;;;;;53.55;32.55;;;;;;;;;;5065071;28;20043;-63
2022/03/22 01:08:05;;;;;;;48.70;31.65;;;;;;;;;;5077582;28;20479;-63
2022/03/22 01:10:32;;;;;;;52.65;33.40;;;;;;;;;;5074422;28;20091;-63
2022/03/22 01:12:58;;;;;;;54.92;31.65;;;;;;;;;;5076771;28;20491;-63
2022/03/22 01:15:26;;;;;;;50.75;31.75;;;;;;;;;;5074704;28;20496;-63
2022/03/22 01:17:56;;;;;;;53.33;32.85;;;;;;;;;;5071573;28;20115;-63
2022/03/22 01:20:25;;;;;;;57.53;33.67;;;;;;;;;;5077469;28;20044;-63
2022/03/22 01:22:52;;;;;;;49.63;32.53;;;;;;;;;;5085888;28;20535;-63
2022/03/22 01:25:23;;;;;;;55.90;33.33;;;;;;;;;;5061072;28;20443;-63
2022/03/22 01:27:49;;;;;;;61.47;33.65;;;;;;;;;;5058868;28;20040;-64
2022/03/22 01:30:17;;;;;;;55.65;32.75;;;;;;;;;;5079928;28;20048;-63
2022/03/22 01:32:43;;;;;;;51.17;32.70;;;;;;;;;;5056250;28;20544;-63
2022/03/22 01:35:09;;;;;;;54.05;33.67;;;;;;;;;;5077093;28;20075;-63
2022/03/22 01:37:36;;;;;;;55.05;33.28;;;;;;;;;;5077251;28;20120;-63
2022/03/22 01:40:03;;;;;;;55.20;33.30;;;;;;;;;;5053603;28;20046;-63
2022/03/22 01:42:29;;;;;;;55.45;33.97;;;;;;;;;;5061554;28;20484;-63
2022/03/22 01:44:55;;;;;;;51.85;32.67;;;;;;;;;;5078535;28;20524;-63
2022/03/22 01:47:23;;;;;;;56.20;34.17;;;;;;;;;;5078158;28;20047;-63
2022/03/22 01:49:50;;;;;;;62.35;34.78;;;;;;;;;;5058816;28;20496;-63
2022/03/22 01:52:19;;;;;;;59.63;35.10;;;;;;;;;;5076121;28;20067;-63
2022/03/22 01:54:46;;;;;;;54.53;35.13;;;;;;;;;;5078341;28;20044;-63
2022/03/22 01:57:12;;;;;;;54.75;34.10;;;;;;;;;;5057885;28;20037;-63
2022/03/22 01:59:38;;;;;;;59.00;34.38;;;;;;;;;;5058621;28;20392;-63
2022/03/22 02:07:39;;;;;;;52.97;33.75;;;;;;;;;;5073175;28;20071;-63
2022/03/22 02:10:06;;;;;;;54.95;33.22;;;;;;;;;;5072666;28;20379;-63
2022/03/22 02:12:32;;;;;;;42.92;27.92;;;;;;;;;;5073797;28;20404;-63
2022/03/22 02:14:58;;;;;;;43.13;28.10;;;;;;;;;;5070496;28;20045;-63
2022/03/22 02:17:24;;;;;;;42.40;28.13;;;;;;;;;;5074453;28;20033;-63
2022/03/22 02:19:51;;;;;;;45.50;28.35;;;;;;;;;;5073097;28;20052;-63
2022/03/22 02:22:19;;;;;;;48.83;29.55;;;;;;;;;;5054796;28;20058;-63
2022/03/22 02:24:46;;;;;;;53.25;30.25;;;;;;;;;;5072802;28;20048;-63
2022/03/22 02:27:12;;;;;;;47.40;29.60;;;;;;;;;;5073619;28;20052;-63
2022/03/22 02:29:38;;;;;;;50.13;32.50;;;;;;;;;;5056476;28;20412;-63
2022/03/22 02:32:06;;;;;;;50.05;30.63;;;;;;;;;;5073397;28;20036;-63
2022/03/22 02:34:35;;;;;;;46.55;29.83;;;;;;;;;;5073410;28;20047;-63
2022/03/22 02:37:01;;;;;;;53.30;32.33;;;;;;;;;;5075471;28;21251;-63
2022/03/22 02:39:27;;;;;;;51.03;31.67;;;;;;;;;;5078266;28;20056;-64
2022/03/22 02:41:53;;;;;;;49.08;31.55;;;;;;;;;;5072679;28;20076;-64
2022/03/22 02:44:20;;;;;;;50.88;31.45;;;;;;;;;;5080381;28;20044;-63
2022/03/22 02:46:46;;;;;;;53.92;33.17;;;;;;;;;;5074971;28;20064;-63
2022/03/22 02:49:13;;;;;;;55.20;32.55;;;;;;;;;;5072518;28;20078;-63
2022/03/22 02:51:39;;;;;;;47.63;30.27;;;;;;;;;;5055820;28;20040;-63
2022/03/22 02:54:06;;;;;;;50.05;30.80;;;;;;;;;;5072516;28;20520;-63
2022/03/22 02:56:32;;;;;;;50.05;32.05;;;;;;;;;;5073037;28;20039;-63
2022/03/22 02:58:59;;;;;;;53.08;31.50;;;;;;;;;;5055003;28;20044;-64
2022/03/22 03:01:25;;;;;;;49.92;31.20;;;;;;;;;;5073236;28;20055;-64
2022/03/22 03:03:52;;;;;;;54.05;32.08;;;;;;;;;;5073204;28;20041;-64
2022/03/22 03:06:19;;;;;;;48.55;30.63;;;;;;;;;;5052630;28;21275;-63
2022/03/22 03:08:45;;;;;;;50.28;30.63;;;;;;;;;;5070703;28;20037;-63
2022/03/22 03:11:12;;;;;;;52.08;32.42;;;;;;;;;;5054366;28;20044;-63
2022/03/22 03:16:23;;;;;;;49.08;31.27;;;;;;;;;;5066758;28;20044;-63
2022/03/22 03:18:51;;;;;;;52.85;31.85;;;;;;;;;;5052545;28;20505;-63
2022/03/22 03:21:17;;;;;;;53.10;32.80;;;;;;;;;;5052205;28;20113;-63
2022/03/22 03:23:43;;;;;;;57.03;34.22;;;;;;;;;;5053280;28;20043;-63
2022/03/22 03:26:09;;;;;;;55.63;32.28;;;;;;;;;;5078189;28;20040;-63
2022/03/22 03:28:35;;;;;;;54.10;33.10;;;;;;;;;;5070858;28;20040;-63
2022/03/22 03:31:01;;;;;;;46.78;30.95;;;;;;;;;;5070976;28;20040;-63
2022/03/22 03:33:28;;;;;;;55.33;33.00;;;;;;;;;;5052251;28;20044;-63
2022/03/22 03:35:54;;;;;;;55.13;32.33;;;;;;;;;;5068362;28;20120;-63
2022/03/22 03:38:20;;;;;;;55.20;32.00;;;;;;;;;;5069936;28;20080;-63
2022/03/22 03:43:31;;;;;;;57.13;32.90;;;;;;;;;;5071044;28;20523;-63
2022/03/22 03:48:42;;;;;;;57.85;34.25;;;;;;;;;;5069154;28;20048;-63
2022/03/22 03:51:08;;;;;;;53.83;33.30;;;;;;;;;;5055146;28;20044;-63
2022/03/22 03:53:34;;;;;;;54.15;32.53;;;;;;;;;;5069018;28;20125;-63
2022/03/22 03:56:00;;;;;;;53.25;33.53;;;;;;;;;;5052268;28;20044;-63
2022/03/22 03:58:26;;;;;;;52.63;33.33;;;;;;;;;;5070711;28;20370;-63
2022/03/22 04:00:52;;;;;;;56.15;34.22;;;;;;;;;;5070585;28;20495;-63
2022/03/22 04:03:18;;;;;;;56.30;34.30;;;;;;;;;;5071327;28;20130;-63
2022/03/22 04:05:45;;;;;;;54.88;33.10;;;;;;;;;;5068728;28;20089;-63
2022/03/22 04:08:11;;;;;;;57.40;32.42;;;;;;;;;;5055748;28;20476;-63
2022/03/22 04:10:37;;;;;;;54.13;33.28;;;;;;;;;;5070987;28;20045;-63
2022/03/22 04:13:03;;;;;;;55.75;33.47;;;;;;;;;;5070753;28;20378;-63
2022/03/22 04:15:31;;;;;;;53.22;33.78;;;;;;;;;;5069024;28;20041;-63
2022/03/22 04:17:59;;;;;;;53.92;33.20;;;;;;;;;;5069152;28;20527;-63
2022/03/22 04:20:26;;;;;;;58.83;33.15;;;;;;;;;;5071484;28;20052;-63
2022/03/22 04:22:52;;;;;;;53.33;32.22;;;;;;;;;;5053342;28;20439;-63
2022/03/22 04:25:18;;;;;;;57.08;34.15;;;;;;;;;;5069961;28;20485;-63
2022/03/22 04:33:14;;;;;;;55.92;33.67;;;;;;;;;;5072708;28;20044;-63
2022/03/22 04:35:40;;;;;;;58.25;35.00;;;;;;;;;;5073638;28;20028;-63
2022/03/22 04:38:06;;;;;;;55.05;32.90;;;;;;;;;;5054244;28;20040;-63
2022/03/22 04:40:33;;;;;;;61.58;34.20;;;;;;;;;;5070522;28;20068;-63
2022/03/22 04:42:59;;;;;;;56.75;34.28;;;;;;;;;;5071768;28;20393;-63
2022/03/22 04:45:25;;;;;;;49.10;31.25;;;;;;;;;;5071904;28;20040;-63
2022/03/22 04:47:51;;;;;;;58.13;33.22;;;;;;;;;;5052674;28;20036;-63
2022/03/22 04:50:18;;;;;;;54.38;33.20;;;;;;;;;;5070000;28;20072;-64
2022/03/22 04:58:14;;;;;;;54.35;33.00;;;;;;;;;;5069866;28;20037;-63
2022/03/22 05:00:40;;;;;;;54.63;34.30;;;;;;;;;;5053299;28;20058;-63
2022/03/22 05:03:08;;;;;;;53.20;32.80;;;;;;;;;;5073353;28;20028;-63
2022/03/22 05:08:19;;;;;;;49.45;31.60;;;;;;;;;;5070555;28;20438;-64
2022/03/22 05:10:45;;;;;;;56.05;33.33;;;;;;;;;;5070374;28;20123;-63
2022/03/22 05:13:11;;;;;;;57.28;33.40;;;;;;;;;;5069818;28;20040;-63
2022/03/22 05:15:38;;;;;;;51.35;33.08;;;;;;;;;;5053068;28;20098;-63
2022/03/22 05:18:04;;;;;;;56.53;32.90;;;;;;;;;;5071229;28;20077;-63
2022/03/22 05:20:31;;;;;;;56.38;32.90;;;;;;;;;;5050900;28;20052;-63
2022/03/22 05:22:58;;;;;;;56.97;33.95;;;;;;;;;;5052845;28;20090;-63
2022/03/22 05:25:24;;;;;;;56.80;34.35;;;;;;;;;;5074470;28;20076;-63
2022/03/22 05:27:51;;;;;;;53.33;32.30;;;;;;;;;;5055721;28;20040;-63
2022/03/22 05:30:17;;;;;;;54.80;32.30;;;;;;;;;;5051185;28;20049;-63
2022/03/22 05:32:43;;;;;;;55.40;33.28;;;;;;;;;;5067945;28;20036;-63
2022/03/22 05:35:10;;;;;;;54.80;34.03;;;;;;;;;;5069084;28;20033;-63
2022/03/22 05:37:36;;;;;;;51.33;31.50;;;;;;;;;;5050001;28;20123;-63
2022/03/22 05:40:02;;;;;;;57.90;34.58;;;;;;;;;;5070271;28;20033;-63
2022/03/22 05:42:28;;;;;;;54.88;34.00;;;;;;;;;;5072119;28;20049;-63
2022/03/22 05:44:55;;;;;;;58.08;34.08;;;;;;;;;;5073635;28;20078;-63
2022/03/22 05:47:21;;;;;;;54.00;33.95;;;;;;;;;;5072095;28;20054;-63
2022/03/22 05:49:47;;;;;;;53.20;33.63;;;;;;;;;;5072792;28;20073;-63
2022/03/22 05:52:13;;;;;;;51.22;32.83;;;;;;;;;;5055811;28;20397;-63
2022/03/22 05:54:39;;;;;;;54.08;32.90;;;;;;;;;;5068056;28;20059;-63
2022/03/22 05:57:05;;;;;;;55.63;33.72;;;;;;;;;;5071523;28;20091;-63
2022/03/22 05:59:32;;;;;;;57.28;34.25;;;;;;;;;;5073628;28;20113;-63
2022/03/22 06:01:58;;;;;;;58.33;35.90;;;;;;;;;;5055900;28;20040;-63
2022/03/22 06:04:24;;;;;;;56.65;34.40;;;;;;;;;;5056419;28;20048;-63
2022/03/22 06:06:50;;;;;;;58.00;34.33;;;;;;;;;;5073123;28;20518;-63
2022/03/22 06:09:16;;;;;;;56.72;34.92;;;;;;;;;;5073545;28;20164;-63
2022/03/22 06:11:42;;;;;;;56.10;33.92;;;;;;;;;;5051227;28;20495;-63
2022/03/22 06:14:09;;;;;;;54.10;33.50;;;;;;;;;;5072900;28;20424;-63
2022/03/22 06:16:35;;;;;;;54.83;34.83;;;;;;;;;;5069824;28;20400;-63
2022/03/22 06:19:01;;;;;;;55.03;33.28;;;;;;;;;;5077999;28;20451;-63
2022/03/22 06:21:27;;;;;;;50.05;31.60;;;;;;;;;;5080511;28;20040;-63
2022/03/22 06:23:54;;;;;;;53.50;33.10;;;;;;;;;;5084344;28;20035;-63
2022/03/22 06:26:20;;;;;;;57.83;34.15;;;;;;;;;;5060269;28;20115;-63
2022/03/22 06:28:46;;;;;;;54.40;33.53;;;;;;;;;;5056488;28;20378;-63
2022/03/22 06:31:12;;;;;;;56.85;33.97;;;;;;;;;;5083878;28;20044;-63
2022/03/22 06:33:39;;;;;;;58.75;35.15;;;;;;;;;;5070801;28;20090;-63
2022/03/22 06:36:08;;;;;;;56.85;34.28;;;;;;;;;;5069369;28;20123;-63
2022/03/22 06:38:34;;;;;;;53.97;35.05;;;;;;;;;;5068221;28;20051;-63
2022/03/22 06:41:01;;;;;;;57.33;34.72;;;;;;;;;;5052602;28;20052;-63
2022/03/22 06:43:27;;;;;;;56.03;34.58;;;;;;;;;;5069632;28;20060;-63
2022/03/22 06:45:53;;;;;;;50.30;33.72;;;;;;;;;;5069664;28;20040;-63
2022/03/22 06:48:19;;;;;;;52.22;33.97;;;;;;;;;;5076286;28;20422;-63
2022/03/22 06:50:49;;;;;;;55.33;33.88;;;;;;;;;;5054379;28;20041;-63
2022/03/22 06:53:16;;;;;;;56.53;34.55;;;;;;;;;;5052917;28;20398;-63
2022/03/22 06:55:43;;;;;;;54.17;34.58;;;;;;;;;;5071434;28;20058;-63
2022/03/22 06:58:11;;;;;;;53.72;32.80;;;;;;;;;;5072817;28;20041;-63
2022/03/22 07:00:37;;;;;;;57.97;34.45;;;;;;;;;;5074370;28;20044;-64
2022/03/22 07:03:04;;;;;;;61.10;33.15;;;;;;;;;;5074836;28;20032;-67
2022/03/22 07:05:30;;;;;;;56.45;34.45;;;;;;;;;;5077553;28;20136;-64
2022/03/22 07:07:56;;;;;;;58.78;34.85;;;;;;;;;;5071565;28;20128;-63
2022/03/22 07:10:23;;;;;;;55.75;34.47;;;;;;;;;;5071320;28;20044;-63
2022/03/22 07:12:53;;;;;;;54.38;33.83;;;;;;;;;;5072443;28;20036;-63
2022/03/22 07:15:26;;;;;;;53.00;33.22;;;;;;;;;;5050617;28;20511;-63
2022/03/22 07:17:54;;;;;;;53.20;33.60;;;;;;;;;;5052577;28;20122;-63
2022/03/22 07:20:21;;;;;;;51.72;32.83;;;;;;;;;;5075632;28;20075;-63
2022/03/22 07:22:48;;;;;;;54.75;33.60;;;;;;;;;;5071462;28;20106;-63
2022/03/22 07:25:14;;;;;;;48.65;32.90;;;;;;;;;;5069109;28;20049;-63
2022/03/22 07:27:40;;;;;;;51.25;32.40;;;;;;;;;;5074565;28;20503;-63
2022/03/22 07:30:07;;;;;;;47.90;31.35;;;;;;;;;;5051329;28;20045;-63
2022/03/22 07:32:33;;;;;;;45.97;31.50;;;;;;;;;;5052154;28;20132;-64
2022/03/22 07:34:59;;;;;;;50.42;31.73;;;;;;;;;;5077742;28;20106;-63
2022/03/22 07:37:25;;;;;;;53.90;31.50;;;;;;;;;;5077425;28;20381;-63
2022/03/22 07:39:52;;;;;;;49.78;32.83;;;;;;;;;;5074293;28;20093;-63
2022/03/22 07:42:18;;;;;;;48.90;28.75;;;;;;;;;;5071235;28;20106;-63
2022/03/22 07:44:45;;;;;;;48.13;30.17;;;;;;;;;;5036466;28;20056;-63
2022/03/22 07:47:13;;;;;;;47.90;30.42;;;;;;;;;;5051756;28;20055;-64
2022/03/22 07:55:10;;;;;;;43.53;28.45;;;;;;;;;;5075837;28;20558;-63
2022/03/22 07:57:36;;;;;;;48.33;29.48;;;;;;;;;;5067445;28;20037;-64
2022/03/22 08:00:04;;;;;;;41.97;27.33;;;;;;;;;;5070117;28;20071;-63
2022/03/22 08:02:32;;;;;;;41.90;27.63;;;;;;;;;;5070208;28;20587;-64
2022/03/22 08:04:58;;;;;;;39.30;25.13;;;;;;;;;;5066768;28;20044;-64
2022/03/22 08:07:24;;;;;;;42.92;26.40;;;;;;;;;;5071530;28;20067;-63
2022/03/22 08:09:51;;;;;;;41.60;26.95;;;;;;;;;;5071501;28;20417;-63
2022/03/22 08:12:18;;;;;;;44.20;27.08;;;;;;;;;;5068826;28;20413;-63
2022/03/22 08:14:44;;;;;;;41.20;26.35;;;;;;;;;;5069771;28;20098;-63
2022/03/22 08:17:10;;;;;;;37.40;25.52;;;;;;;;;;5063207;28;20036;-64
2022/03/22 08:19:36;;;;;;;37.60;25.98;;;;;;;;;;5066855;28;20642;-64
2022/03/22 08:22:02;;;;;;;38.53;25.02;;;;;;;;;;5038086;28;20109;-64
2022/03/22 08:24:29;;;;;;;33.85;24.30;;;;;;;;;;5069684;28;20136;-64
2022/03/22 08:26:55;;;;;;;37.97;26.33;;;;;;;;;;5074532;28;20043;-64
2022/03/22 08:29:21;;;;;;;35.03;24.77;;;;;;;;;;5077782;28;20409;-64
2022/03/22 08:31:48;;;;;;;42.65;24.90;;;;;;;;;;5054642;28;20121;-64
2022/03/22 08:34:14;;;;;;;37.85;25.08;;;;;;;;;;5067398;28;20055;-64
2022/03/22 08:36:40;;;;;;;39.88;24.73;;;;;;;;;;5067079;28;20134;-64
2022/03/22 08:39:06;;;;;;;38.13;25.45;;;;;;;;;;5069038;28;20036;-64
2022/03/22 08:41:32;;;;;;;37.40;24.88;;;;;;;;;;5054581;28;20048;-64
2022/03/22 08:43:58;;;;;;;38.53;25.58;;;;;;;;;;5049129;28;20048;-64
2022/03/22 08:46:25;;;;;;;36.03;24.65;;;;;;;;;;5068406;28;20044;-64
2022/03/22 08:48:53;;;;;;;36.85;24.80;;;;;;;;;;5065713;28;20055;-64
2022/03/22 08:51:21;;;;;;;35.58;24.77;;;;;;;;;;5068871;28;20059;-64
2022/03/22 08:53:47;;;;;;;34.60;24.50;;;;;;;;;;5051209;28;20633;-64
2022/03/22 08:56:13;;;;;;;35.55;24.60;;;;;;;;;;5069114;28;20040;-64
2022/03/22 08:58:39;;;;;;;37.88;25.00;;;;;;;;;;5068508;28;20520;-64
2022/03/22 09:01:07;;;;;;;34.00;23.50;;;;;;;;;;5070691;28;20042;-64
2022/03/22 09:03:35;;;;;;;36.38;23.25;;;;;;;;;;5051482;28;20481;-64
2022/03/22 09:06:16;;;;;;;36.10;24.48;;;;;;;;;;5049592;28;20091;-64
2022/03/22 09:08:42;;;;;;;39.92;24.23;;;;;;;;;;5048961;28;20036;-64
2022/03/22 09:11:09;;;;;;;35.33;24.00;;;;;;;;;;5047294;28;20097;-64
2022/03/22 09:13:37;;;;;;;35.30;24.00;;;;;;;;;;5057762;28;20040;-68
2022/03/22 09:16:04;;;;;;;33.63;22.95;;;;;;;;;;5056434;28;20040;-65
2022/03/22 09:18:30;;;;;;;36.38;23.00;;;;;;;;;;5053416;28;20117;-64
2022/03/22 09:20:56;;;;;;;32.75;20.77;;;;;;;;;;5071935;28;20055;-65
2022/03/22 09:23:23;;;;;;;38.00;21.60;;;;;;;;;;5052351;28;20048;-64
2022/03/22 09:25:50;;;;;;;33.65;22.30;;;;;;;;;;5038642;28;20052;-65
2022/03/22 09:28:16;;;;;;;33.22;22.92;;;;;;;;;;5038573;28;20041;-65
2022/03/22 09:30:42;;;;;;;35.97;23.55;;;;;;;;;;5072651;28;20045;-65
2022/03/22 09:33:11;;;;;;;37.08;23.55;;;;;;;;;;5054611;28;20550;-65
2022/03/22 09:35:37;;;;;;;31.02;22.95;;;;;;;;;;5054965;28;20485;-65
2022/03/22 09:38:04;;;;;;;30.88;22.42;;;;;;;;;;5055415;28;20032;-65
2022/03/22 09:40:30;;;;;;;34.20;23.52;;;;;;;;;;5073996;28;20131;-64
2022/03/22 09:42:56;;;;;;;30.95;22.98;;;;;;;;;;5056068;28;20083;-65
2022/03/22 09:45:26;;;;;;;32.47;22.50;;;;;;;;;;5055711;28;20450;-65
2022/03/22 09:47:53;;;;;;;33.13;23.58;;;;;;;;;;5055705;28;20101;-65
2022/03/22 09:50:20;;;;;;;33.30;23.80;;;;;;;;;;5055349;28;20101;-65
2022/03/22 09:52:46;;;;;;;37.47;24.25;;;;;;;;;;5073305;28;20546;-65
2022/03/22 09:55:14;;;;;;;34.00;23.25;;;;;;;;;;5055422;28;20052;-65
2022/03/22 09:57:40;;;;;;;33.92;23.70;;;;;;;;;;5039225;28;20045;-65
2022/03/22 10:00:07;;;;;;;37.13;22.83;;;;;;;;;;5060452;28;20044;-65
2022/03/22 10:02:35;;;;;;;32.53;22.20;;;;;;;;;;5059777;28;20044;-65
2022/03/22 10:05:01;;;;;;;36.50;23.02;;;;;;;;;;5058684;28;20044;-65
2022/03/22 10:07:28;;;;;;;33.58;22.33;;;;;;;;;;5051207;28;20053;-65
2022/03/22 10:09:58;;;;;;;31.35;22.13;;;;;;;;;;5055282;28;20520;-65
2022/03/22 10:12:37;;;;;;;32.58;21.17;;;;;;;;;;5043220;28;20389;-65
2022/03/22 10:15:09;;;;;;;30.48;21.58;;;;;;;;;;5055985;28;20043;-65
2022/03/22 10:17:36;;;;;;;36.17;22.67;;;;;;;;;;5055459;28;20048;-65
2022/03/22 10:20:05;;;;;;;33.25;21.45;;;;;;;;;;5060288;28;20059;-65
2022/03/22 10:22:31;;;;;;;31.05;20.48;;;;;;;;;;5053749;28;20060;-65
2022/03/22 10:24:58;;;;;;;29.83;20.45;;;;;;;;;;5058453;28;20427;-65
2022/03/22 10:27:32;;;;;;;28.92;20.23;;;;;;;;;;5060160;28;20048;-65
2022/03/22 10:29:59;;;;;;;30.27;20.77;;;;;;;;;;5055540;28;20048;-65
2022/03/22 10:32:32;;;;;;;28.98;19.60;;;;;;;;;;5055518;28;20033;-65
2022/03/22 10:35:09;;;;;;;34.45;20.95;;;;;;;;;;5056003;28;20109;-65
2022/03/22 10:37:36;;;;;;;30.38;20.38;;;;;;;;;;5062914;28;20041;-65
2022/03/22 10:40:02;;;;;;;28.42;20.08;;;;;;;;;;5034969;28;20107;-65
2022/03/22 10:42:29;;;;;;;29.75;21.05;;;;;;;;;;5050967;28;20047;-65
2022/03/22 10:44:58;;;;;;;30.67;19.48;;;;;;;;;;5060478;28;20477;-65
2022/03/22 10:47:25;;;;;;;29.35;20.48;;;;;;;;;;5073110;28;20040;-65
2022/03/22 10:50:02;;;;;;;28.50;19.35;;;;;;;;;;5058929;28;20046;-65
2022/03/22 10:52:29;;;;;;;32.22;20.70;;;;;;;;;;5063194;28;20079;-65
2022/03/22 10:54:55;;;;;;;28.38;20.75;;;;;;;;;;5054641;28;20094;-65
2022/03/22 10:57:29;;;;;;;31.13;21.05;;;;;;;;;;5052571;28;20452;-65
2022/03/22 10:59:55;;;;;;;30.98;21.65;;;;;;;;;;5069965;28;20499;-65
2022/03/22 11:02:23;;;;;;;28.05;19.63;;;;;;;;;;5054763;28;20037;-65
2022/03/22 11:04:50;;;;;;;28.50;19.55;;;;;;;;;;5054000;28;20036;-65
2022/03/22 11:07:17;;;;;;;29.50;18.35;;;;;;;;;;5054440;28;20080;-65
2022/03/22 11:09:43;;;;;;;31.02;18.85;;;;;;;;;;5054009;28;20048;-65
2022/03/22 11:12:10;;;;;;;30.52;19.27;;;;;;;;;;5057081;28;20048;-65
2022/03/22 11:14:37;;;;;;;28.70;18.52;;;;;;;;;;5054845;28;20071;-65
2022/03/22 11:17:03;;;;;;;28.50;18.35;;;;;;;;;;5055126;28;20425;-65
2022/03/22 11:19:29;;;;;;;27.77;18.08;;;;;;;;;;5038406;28;20070;-65
2022/03/22 11:22:04;;;;;;;26.55;17.77;;;;;;;;;;5053754;28;20036;-65
2022/03/22 11:24:30;;;;;;;25.30;16.63;;;;;;;;;;5054120;28;20126;-65
2022/03/22 11:26:56;;;;;;;24.98;17.50;;;;;;;;;;5053544;28;20044;-65
2022/03/22 11:29:25;;;;;;;28.27;19.20;;;;;;;;;;5053436;28;20047;-66
2022/03/22 11:34:36;;;;;;;33.00;20.73;;;;;;;;;;5072506;28;20048;-65
2022/03/22 11:37:02;;;;;;;27.05;20.58;;;;;;;;;;5055056;28;20040;-65
2022/03/22 11:42:15;;;;;;;26.63;19.05;;;;;;;;;;5054673;28;20059;-65
2022/03/22 11:44:41;;;;;;;26.90;19.60;;;;;;;;;;5073643;28;20044;-65
2022/03/22 11:47:12;;;;;;;25.77;18.85;;;;;;;;;;5056179;28;20063;-65
2022/03/22 11:49:57;;;;;;;30.05;18.80;;;;;;;;;;5058544;28;20411;-65
2022/03/22 11:52:27;;;;;;;31.00;19.27;;;;;;;;;;5054498;28;20044;-65
2022/03/22 11:54:58;;;;;;;29.15;20.35;;;;;;;;;;5049564;28;20080;-65
2022/03/22 11:57:24;;;;;;;30.48;20.17;;;;;;;;;;5050445;28;20143;-65
2022/03/22 11:59:52;;;;;;;28.02;18.88;;;;;;;;;;5050624;28;20047;-64
2022/03/22 12:02:38;;;;;;;27.65;19.05;;;;;;;;;;5050745;28;20128;-65
2022/03/22 12:05:04;;;;;;;30.23;19.08;;;;;;;;;;5050612;28;20048;-65
2022/03/22 12:07:37;;;;;;;31.55;18.95;;;;;;;;;;5050894;28;20051;-65
2022/03/22 12:10:08;;;;;;;25.70;17.83;;;;;;;;;;5050240;28;20049;-65
2022/03/22 12:12:35;;;;;;;27.70;18.60;;;;;;;;;;5049899;28;20037;-65
2022/03/22 12:15:03;;;;;;;30.55;19.00;;;;;;;;;;5051791;28;20041;-65
2022/03/22 12:17:30;;;;;;;25.67;18.63;;;;;;;;;;5052150;28;20041;-65
2022/03/22 12:19:59;;;;;;;27.27;18.80;;;;;;;;;;5050485;28;20099;-65
2022/03/22 12:22:26;;;;;;;29.63;19.58;;;;;;;;;;5050231;28;20060;-65
2022/03/22 12:24:52;;;;;;;32.88;19.55;;;;;;;;;;5050135;28;20482;-65
2022/03/22 12:27:19;;;;;;;30.98;19.92;;;;;;;;;;5050235;28;20094;-65
2022/03/22 12:29:47;;;;;;;29.33;20.10;;;;;;;;;;5049682;28;20052;-65
2022/03/22 12:32:17;;;;;;;30.15;20.38;;;;;;;;;;5050299;28;20699;-65
2022/03/22 12:34:44;;;;;;;31.58;19.58;;;;;;;;;;5050297;28;20433;-65
2022/03/22 12:37:11;;;;;;;31.38;20.17;;;;;;;;;;5049078;28;20045;-65
2022/03/22 12:39:38;;;;;;;32.20;20.27;;;;;;;;;;5051086;28;20044;-65
2022/03/22 12:42:05;;;;;;;30.65;20.35;;;;;;;;;;5049385;28;20127;-65
2022/03/22 12:44:31;;;;;;;30.35;19.75;;;;;;;;;;5049141;28;20048;-65
2022/03/22 12:46:58;;;;;;;34.30;21.25;;;;;;;;;;5049351;28;20045;-65
2022/03/22 12:49:25;;;;;;;31.77;20.00;;;;;;;;;;5050144;28;20057;-65
2022/03/22 12:51:51;;;;;;;30.98;19.90;;;;;;;;;;5050843;28;20627;-65
2022/03/22 12:54:17;;;;;;;33.45;20.95;;;;;;;;;;5052754;28;20097;-65
2022/03/22 12:56:47;;;;;;;30.42;18.95;;;;;;;;;;5071390;28;20043;-65
2022/03/22 12:59:20;;;;;;;29.85;17.90;;;;;;;;;;5068079;28;20089;-65
2022/03/22 13:01:46;;;;;;;29.73;17.80;;;;;;;;;;5045663;28;20101;-65
2022/03/22 13:04:12;;;;;;;29.98;18.13;;;;;;;;;;5052825;28;20040;-65
2022/03/22 13:06:39;;;;;;;28.63;16.88;;;;;;;;;;5052759;28;20045;-65
2022/03/22 13:11:52;;;;;;;25.67;15.52;;;;;;;;;;5066849;28;20550;-65
2022/03/22 13:17:04;;;;;;;25.38;15.73;;;;;;;;;;5069522;28;20518;-65
2022/03/22 13:19:32;;;;;;;24.85;16.42;;;;;;;;;;5055537;28;20106;-65
2022/03/22 13:21:58;;;;;;;27.02;17.10;;;;;;;;;;5066789;28;20125;-65
2022/03/22 13:24:26;;;;;;;26.88;16.00;;;;;;;;;;5052971;28;20041;-65
2022/03/22 13:26:52;;;;;;;24.95;16.48;;;;;;;;;;5052950;28;20392;-65
2022/03/22 13:29:19;;;;;;;25.60;16.63;;;;;;;;;;5054088;28;20033;-65
2022/03/22 13:31:55;;;;;;;24.73;16.38;;;;;;;;;;5052782;28;20109;-65
2022/03/22 13:34:22;;;;;;;25.38;15.98;;;;;;;;;;5048753;28;20040;-65
2022/03/22 13:36:48;;;;;;;24.75;16.15;;;;;;;;;;5052069;28;20115;-65
2022/03/22 13:39:23;;;;;;;23.80;15.32;;;;;;;;;;5051139;28;20123;-65
2022/03/22 13:41:49;;;;;;;22.80;15.20;;;;;;;;;;5069648;28;20080;-65
2022/03/22 13:44:25;;;;;;;23.80;15.60;;;;;;;;;;5059839;28;20077;-65
2022/03/22 13:46:51;;;;;;;22.58;15.48;;;;;;;;;;5060687;28;20492;-66
2022/03/22 13:49:18;;;;;;;24.05;14.68;;;;;;;;;;5057124;28;20044;-65
2022/03/22 13:51:44;;;;;;;22.67;14.52;;;;;;;;;;5044569;28;20052;-65
2022/03/22 13:54:13;;;;;;;22.63;14.63;;;;;;;;;;5052161;28;20115;-65
2022/03/22 13:56:39;;;;;;;24.77;14.45;;;;;;;;;;5052804;28;20400;-65
2022/03/22 13:59:10;;;;;;;26.38;14.70;;;;;;;;;;5059115;28;20499;-65
2022/03/22 14:01:37;;;;;;;22.00;13.82;;;;;;;;;;5060613;28;20041;-65
2022/03/22 14:04:03;;;;;;;24.73;14.70;;;;;;;;;;5078754;28;20044;-65
2022/03/22 14:06:30;;;;;;;23.50;15.35;;;;;;;;;;5062967;28;20130;-65
2022/03/22 14:08:56;;;;;;;27.05;15.07;;;;;;;;;;5058317;28;20041;-65
2022/03/22 14:11:23;;;;;;;24.25;15.63;;;;;;;;;;5055150;28;20049;-65
2022/03/22 14:13:49;;;;;;;22.85;14.93;;;;;;;;;;5062733;28;20040;-65
2022/03/22 14:16:15;;;;;;;24.63;14.80;;;;;;;;;;5063758;28;20066;-65
2022/03/22 14:18:41;;;;;;;23.05;14.75;;;;;;;;;;5057956;28;20039;-65
2022/03/22 14:21:07;;;;;;;24.15;14.23;;;;;;;;;;5044289;28;20123;-65
2022/03/22 14:23:33;;;;;;;24.70;15.05;;;;;;;;;;5075950;28;20053;-65
2022/03/22 14:25:59;;;;;;;26.13;14.60;;;;;;;;;;5063585;28;20044;-65
2022/03/22 14:28:26;;;;;;;24.92;14.60;;;;;;;;;;5037587;28;20512;-65
2022/03/22 14:30:53;;;;;;;22.35;15.38;;;;;;;;;;5054202;28;20073;-65
2022/03/22 14:33:20;;;;;;;29.17;15.75;;;;;;;;;;5055326;28;20555;-65
2022/03/22 14:35:50;;;;;;;27.63;15.13;;;;;;;;;;5055323;28;20057;-65
2022/03/22 14:38:26;;;;;;;21.83;14.88;;;;;;;;;;5063370;28;20484;-65
2022/03/22 14:40:53;;;;;;;;;;;;;;;;;;5055797;28;20037;-65
2022/03/22 14:43:21;;;;;;;26.42;16.42;;;;;;;;;;5055108;28;19939;-65
2022/03/22 14:45:50;;;;;;;26.85;15.23;;;;;;;;;;5073089;28;20052;-65
2022/03/22 14:48:18;;;;;;;26.20;15.15;;;;;;;;;;5054940;28;20488;-65
2022/03/22 14:50:45;;;;;;;23.13;15.65;;;;;;;;;;5059404;28;20102;-65
2022/03/22 14:58:47;;;;;;;24.17;15.48;;;;;;;;;;5059726;28;20397;-65
2022/03/22 14:58:52;;;;;;;24.60;14.70;;;;;;;;;;5058574;28;20044;-65
2022/03/22 15:01:18;;;;;;;24.55;14.70;;;;;;;;;;5066368;28;20131;-65
2022/03/22 15:03:44;;;;;;;25.42;15.68;;;;;;;;;;5059778;28;20044;-65
2022/03/22 15:06:11;;;;;;;23.88;14.18;;;;;;;;;;5059869;28;20177;-65